Time;durP1;ratioP1;P1;durP2;ratioP2;P2;SDS_P1;SDS_P2;PMS_P1;PMS_P2;Temp;Humidity;BMP_temperature;BMP_pressure;BME280_temperature;BME280_humidity;BME280_pressure;Samples;Min_cycle;Max_cycle;Signal;HPM_P1;HPM_P2
2022/10/05 04:01:04;;;;;;;3.35;3.05;;;12.00;99.90;;;;;;6197514;22;20539;-71
2022/10/05 04:03:34;;;;;;;1.98;1.88;;;12.00;99.90;;;;;;6242683;23;20175;-69
2022/10/05 04:06:08;;;;;;;1.83;1.73;;;12.00;99.90;;;;;;6242262;23;20255;-70
2022/10/05 04:08:40;;;;;;;2.83;2.63;;;12.00;99.90;;;;;;6242275;23;20875;-72
2022/10/05 04:11:13;;;;;;;1.70;1.60;;;12.10;99.90;;;;;;6244556;22;20286;-72
2022/10/05 04:13:46;;;;;;;3.88;2.58;;;12.10;99.90;;;;;;6243034;23;20183;-72
2022/10/05 04:16:19;;;;;;;3.00;2.38;;;12.00;99.90;;;;;;6245121;22;20205;-69
2022/10/05 04:18:50;;;;;;;7.30;2.08;;;12.00;99.90;;;;;;6250773;23;20241;-70
2022/10/05 04:21:20;;;;;;;2.08;2.08;;;12.10;99.90;;;;;;6245041;23;20166;-70
2022/10/05 04:23:55;;;;;;;2.60;2.50;;;12.10;99.90;;;;;;6244330;23;20162;-71
2022/10/05 04:26:30;;;;;;;2.87;2.67;;;12.20;99.90;;;;;;6244134;22;20953;-70
2022/10/05 04:29:02;;;;;;;2.83;2.40;;;12.20;99.90;;;;;;6243080;23;20410;-71
2022/10/05 04:31:51;;;;;;;3.05;2.20;;;12.20;99.90;;;;;;6243151;23;20413;-71
2022/10/05 04:34:38;;;;;;;8.03;2.60;;;12.20;99.90;;;;;;6242417;23;20193;-71
2022/10/05 04:37:09;;;;;;;2.33;2.23;;;12.30;99.90;;;;;;6243058;22;20974;-71
2022/10/05 04:39:43;;;;;;;2.07;1.97;;;12.30;99.90;;;;;;6243558;23;20414;-69
2022/10/05 04:42:17;;;;;;;3.00;2.90;;;12.30;99.90;;;;;;6243224;23;20413;-70
2022/10/05 04:44:56;;;;;;;4.87;2.87;;;12.30;99.90;;;;;;6243158;23;20420;-69
2022/10/05 04:47:55;;;;;;;2.40;2.30;;;12.30;99.90;;;;;;6243007;22;20967;-70
2022/10/05 04:50:34;;;;;;;2.50;2.07;;;12.30;99.90;;;;;;6242456;23;20876;-70
2022/10/05 04:53:09;;;;;;;2.47;2.30;;;12.40;99.90;;;;;;6242800;23;20435;-70
2022/10/05 04:55:42;;;;;;;2.70;2.60;;;12.40;99.90;;;;;;6242353;22;20450;-70
2022/10/05 04:58:19;;;;;;;8.50;2.70;;;12.40;99.90;;;;;;6243656;23;20796;-71
2022/10/05 05:00:54;;;;;;;3.33;2.93;;;12.50;99.90;;;;;;6243015;23;20421;-71
2022/10/05 05:03:47;;;;;;;2.57;2.30;;;12.50;99.90;;;;;;6242850;23;20410;-70
2022/10/05 05:06:30;;;;;;;2.07;1.90;;;12.50;99.90;;;;;;6241043;22;20438;-71
2022/10/05 05:09:39;;;;;;;2.10;1.90;;;12.50;99.90;;;;;;6242852;23;20402;-70
2022/10/05 05:12:19;;;;;;;2.47;2.30;;;12.50;99.90;;;;;;6242726;23;20180;-70
2022/10/05 05:15:12;;;;;;;5.63;3.00;;;12.50;99.90;;;;;;6242526;23;20430;-71
2022/10/05 05:17:54;;;;;;;2.40;2.27;;;12.60;99.90;;;;;;6242990;23;20406;-69
2022/10/05 05:20:32;;;;;;;7.33;3.00;;;12.60;99.90;;;;;;6241761;23;20405;-70
2022/10/05 05:23:09;;;;;;;4.43;2.77;;;12.60;99.90;;;;;;6242882;23;20402;-69
2022/10/05 05:25:44;;;;;;;2.30;2.10;;;12.60;99.90;;;;;;6242955;22;20446;-70
2022/10/05 05:28:22;;;;;;;2.23;2.13;;;12.70;99.90;;;;;;6243225;23;20405;-70
2022/10/05 05:30:55;;;;;;;2.20;2.03;;;12.70;99.90;;;;;;6243144;23;20418;-70
2022/10/05 05:33:29;;;;;;;3.67;2.70;;;12.70;99.90;;;;;;6252312;23;20434;-70
2022/10/05 05:36:34;;;;;;;2.83;2.73;;;12.70;99.90;;;;;;6241457;22;20453;-70
2022/10/05 05:39:16;;;;;;;4.70;3.23;;;12.80;99.90;;;;;;6236615;23;20441;-70
2022/10/05 05:41:50;;;;;;;2.23;2.13;;;12.80;99.90;;;;;;6243226;23;20406;-71
2022/10/05 05:44:23;;;;;;;3.17;2.87;;;12.80;99.90;;;;;;6242220;23;20403;-71
2022/10/05 05:46:56;;;;;;;2.40;2.20;;;12.80;99.90;;;;;;6242647;22;20458;-71
2022/10/05 05:49:28;;;;;;;1.83;1.80;;;12.80;99.90;;;;;;6240489;23;20415;-71
2022/10/05 05:51:59;;;;;;;2.30;2.00;;;12.90;99.90;;;;;;6242998;23;20850;-71
2022/10/05 05:54:31;;;;;;;3.13;2.83;;;12.90;99.90;;;;;;6242334;23;20430;-71
2022/10/05 05:57:07;;;;;;;4.43;2.80;;;12.90;99.90;;;;;;6242015;22;20441;-70
2022/10/05 05:59:48;;;;;;;2.03;1.93;;;13.00;99.90;;;;;;6242428;23;20868;-69
2022/10/05 06:02:19;;;;;;;2.30;2.10;;;13.00;99.90;;;;;;6242204;23;20734;-70
2022/10/05 06:04:52;;;;;;;2.27;2.17;;;13.10;99.90;;;;;;6241170;23;20424;-70
2022/10/05 06:07:24;;;;;;;4.10;3.90;;;13.10;99.90;;;;;;6240305;22;20457;-71
2022/10/05 06:09:56;;;;;;;2.20;2.10;;;13.10;99.90;;;;;;6242028;23;20407;-70
2022/10/05 06:12:27;;;;;;;3.13;2.93;;;13.10;99.90;;;;;;6242656;23;20407;-70
2022/10/05 06:14:58;;;;;;;6.03;2.20;;;13.10;99.90;;;;;;6241673;23;21126;-71
2022/10/05 06:17:33;;;;;;;3.07;2.87;;;13.10;99.90;;;;;;6242002;22;20450;-71
2022/10/05 06:20:02;;;;;;;2.47;2.17;;;13.10;99.90;;;;;;6240847;23;20411;-71
2022/10/05 06:22:35;;;;;;;2.70;2.60;;;13.10;99.90;;;;;;6241918;23;20486;-70
2022/10/05 06:25:17;;;;;;;3.60;3.40;;;13.20;99.90;;;;;;6242794;23;20430;-70
2022/10/05 06:28:01;;;;;;;2.00;1.90;;;13.20;99.90;;;;;;6242795;23;20408;-70
2022/10/05 06:30:36;;;;;;;2.53;2.43;;;13.20;99.90;;;;;;6242451;23;20480;-71
2022/10/05 06:33:11;;;;;;;2.23;2.13;;;13.20;99.90;;;;;;6241320;23;20410;-70
2022/10/05 06:35:52;;;;;;;1.80;1.80;;;13.20;99.90;;;;;;6240697;22;20924;-70
2022/10/05 06:38:45;;;;;;;2.33;1.93;;;13.20;99.90;;;;;;6242241;23;20413;-70
2022/10/05 06:41:20;;;;;;;2.23;2.10;;;13.30;99.90;;;;;;6242115;23;20428;-70
2022/10/05 06:43:55;;;;;;;2.23;2.13;;;13.30;99.90;;;;;;6242141;23;20411;-70
2022/10/05 06:46:25;;;;;;;2.50;2.40;;;13.30;99.90;;;;;;6241875;22;20441;-70
2022/10/05 06:49:16;;;;;;;3.03;2.87;;;13.40;99.90;;;;;;6239977;23;20450;-70
2022/10/05 06:51:51;;;;;;;2.50;1.70;;;13.40;99.90;;;;;;6242337;23;20418;-71
2022/10/05 06:54:43;;;;;;;1.97;1.87;;;13.40;99.90;;;;;;6241611;23;20455;-70
2022/10/05 06:57:19;;;;;;;3.27;2.97;;;13.50;99.90;;;;;;6240337;22;21023;-71
2022/10/05 06:59:52;;;;;;;2.70;2.60;;;13.50;99.90;;;;;;6243371;23;20417;-69
2022/10/05 07:02:25;;;;;;;4.67;2.00;;;13.60;99.90;;;;;;6243547;23;20411;-68
2022/10/05 07:05:28;;;;;;;2.60;2.40;;;13.60;99.90;;;;;;6242282;23;20422;-70
2022/10/05 07:07:58;;;;;;;2.13;2.03;;;13.70;99.90;;;;;;6239521;23;20919;-69
2022/10/05 07:10:32;;;;;;;2.57;2.47;;;13.70;99.90;;;;;;6241172;23;20429;-69
2022/10/05 07:13:12;;;;;;;2.83;2.73;;;13.80;99.90;;;;;;6242536;23;20926;-69
2022/10/05 07:15:44;;;;;;;2.57;2.37;;;13.90;99.90;;;;;;6243576;22;20447;-70
2022/10/05 07:18:47;;;;;;;1.80;1.67;;;14.00;99.90;;;;;;6243912;23;20437;-70
2022/10/05 07:21:23;;;;;;;3.13;2.70;;;14.00;99.90;;;;;;6219905;23;20430;-70
2022/10/05 07:23:59;;;;;;;2.60;2.47;;;14.10;99.90;;;;;;6243230;23;20426;-70
2022/10/05 07:26:32;;;;;;;1.60;1.50;;;14.20;99.90;;;;;;6243910;22;20447;-69
2022/10/05 07:29:28;;;;;;;2.10;1.93;;;14.30;99.90;;;;;;6243842;23;20412;-71
2022/10/05 07:32:03;;;;;;;1.90;1.90;;;14.40;99.90;;;;;;6224942;23;20427;-70
2022/10/05 07:34:40;;;;;;;2.60;2.50;;;14.40;99.90;;;;;;6239931;23;20972;-69
2022/10/05 07:40:06;;;;;;;4.87;2.93;;;14.40;99.90;;;;;;6253172;23;20478;-70
2022/10/05 07:42:47;;;;;;;2.13;2.03;;;14.40;99.90;;;;;;6243008;23;20733;-68
2022/10/05 07:45:19;;;;;;;1.93;1.83;;;14.50;99.90;;;;;;6243518;22;20875;-68
2022/10/05 07:47:53;;;;;;;3.90;2.40;;;14.50;99.90;;;;;;6243303;23;20441;-69
2022/10/05 07:50:23;;;;;;;2.57;2.37;;;14.50;99.90;;;;;;6243001;23;20753;-69
2022/10/05 07:52:56;;;;;;;2.87;2.00;;;14.50;99.90;;;;;;6243644;23;20708;-68
2022/10/05 07:55:25;;;;;;;1.90;1.80;;;14.60;99.90;;;;;;6243323;22;20454;-69
2022/10/05 07:58:04;;;;;;;2.40;2.40;;;14.60;99.90;;;;;;6243601;23;20450;-70
2022/10/05 08:00:48;;;;;;;3.03;2.83;;;14.70;99.90;;;;;;6242196;23;20416;-70
2022/10/05 08:03:26;;;;;;;3.33;2.43;;;14.70;99.90;;;;;;6242945;23;20739;-70
2022/10/05 08:05:54;;;;;;;2.10;1.90;;;14.80;99.90;;;;;;6252449;22;20454;-70
2022/10/05 08:08:28;;;;;;;2.17;2.07;;;14.90;99.90;;;;;;6243262;23;20890;-70
2022/10/05 08:10:59;;;;;;;2.27;2.07;;;14.90;99.90;;;;;;6242114;23;21014;-71
2022/10/05 08:13:34;;;;;;;2.60;2.50;;;15.00;99.90;;;;;;6242583;23;20709;-71
2022/10/05 08:16:04;;;;;;;2.37;2.20;;;14.90;99.90;;;;;;6238874;22;20455;-70
2022/10/05 08:18:45;;;;;;;1.57;1.57;;;15.00;99.90;;;;;;6243249;23;20527;-71
2022/10/05 08:21:15;;;;;;;3.00;2.67;;;15.00;99.90;;;;;;6242486;23;20488;-70
2022/10/05 08:23:50;;;;;;;2.43;2.27;;;15.00;99.90;;;;;;6243466;23;20784;-69
2022/10/05 08:26:24;;;;;;;2.17;2.07;;;15.00;99.90;;;;;;6242702;22;20440;-71
2022/10/05 08:29:03;;;;;;;2.00;1.63;;;14.90;99.90;;;;;;6242337;23;20404;-71
2022/10/05 08:31:33;;;;;;;2.63;2.53;;;14.90;99.90;;;;;;6243394;23;20452;-70
2022/10/05 08:34:15;;;;;;;2.23;2.13;;;15.00;99.90;;;;;;6242202;23;20449;-70
2022/10/05 08:36:54;;;;;;;2.40;2.13;;;15.00;99.90;;;;;;6247407;22;20802;-71
2022/10/05 08:39:24;;;;;;;2.13;2.03;;;15.00;99.90;;;;;;6244219;23;20413;-70
2022/10/05 08:42:10;;;;;;;2.40;2.30;;;14.90;99.90;;;;;;6244450;23;20422;-70
2022/10/05 08:45:16;;;;;;;2.33;2.23;;;14.90;99.90;;;;;;6242983;23;20468;-70
2022/10/05 08:48:15;;;;;;;1.90;1.90;;;14.90;99.90;;;;;;6243585;23;20875;-71
2022/10/05 08:51:10;;;;;;;2.60;2.50;;;15.00;99.90;;;;;;6242989;23;20474;-69
2022/10/05 08:54:08;;;;;;;2.87;2.77;;;15.20;99.90;;;;;;6242295;23;20430;-69
2022/10/05 08:56:41;;;;;;;2.57;2.47;;;15.40;99.90;;;;;;6195779;23;20452;-69
2022/10/05 08:59:45;;;;;;;2.43;2.33;;;15.60;99.90;;;;;;6242880;23;20881;-69
2022/10/05 09:02:32;;;;;;;6.50;2.60;;;15.80;99.90;;;;;;6215549;23;20856;-69
2022/10/05 09:05:20;;;;;;;2.30;2.20;;;16.00;99.90;;;;;;6241848;23;20862;-69
2022/10/05 09:08:25;;;;;;;2.20;1.77;;;16.20;99.90;;;;;;6243279;23;20406;-69
2022/10/05 09:11:01;;;;;;;2.07;1.97;;;16.30;99.90;;;;;;6242696;23;20404;-70
2022/10/05 09:14:02;;;;;;;1.40;1.40;;;16.40;99.90;;;;;;6243129;23;20402;-70
2022/10/05 09:16:56;;;;;;;1.80;1.80;;;16.50;99.90;;;;;;6243106;22;20453;-69
2022/10/05 09:19:47;;;;;;;2.07;1.87;;;16.60;99.90;;;;;;6240250;23;20429;-68
2022/10/05 09:22:15;;;;;;;3.97;2.20;;;16.50;99.90;;;;;;6243351;23;20406;-69
2022/10/05 09:24:54;;;;;;;1.80;1.80;;;16.60;99.90;;;;;;6242368;23;20732;-69
2022/10/05 09:27:33;;;;;;;1.33;1.33;;;16.70;99.90;;;;;;6242618;22;20944;-69
2022/10/05 09:30:17;;;;;;;1.97;1.83;;;16.70;99.90;;;;;;6243044;23;20413;-70
2022/10/05 09:33:13;;;;;;;1.60;1.60;;;16.90;99.90;;;;;;6242750;23;20407;-70
2022/10/05 09:36:19;;;;;;;2.77;2.07;;;16.80;99.90;;;;;;6242527;22;20455;-70
2022/10/05 09:39:19;;;;;;;2.33;2.23;;;16.80;99.90;;;;;;6255825;23;20407;-69
2022/10/05 09:42:07;;;;;;;1.80;1.80;;;16.90;99.90;;;;;;6256790;23;20431;-68
2022/10/05 09:44:59;;;;;;;1.83;1.73;;;17.10;99.90;;;;;;6244073;23;20521;-69
2022/10/05 09:48:04;;;;;;;1.60;1.60;;;17.10;99.90;;;;;;6242578;22;20450;-69
2022/10/05 09:51:20;;;;;;;1.37;1.37;;;17.10;99.90;;;;;;6244280;23;21251;-68
2022/10/05 09:54:30;;;;;;;4.67;2.73;;;17.10;99.90;;;;;;6229775;23;20955;-70
2022/10/05 09:57:18;;;;;;;1.70;1.60;;;17.10;99.90;;;;;;6249019;22;20469;-70
2022/10/05 10:00:22;;;;;;;2.10;2.00;;;17.20;99.90;;;;;;6250959;23;20445;-70
2022/10/05 10:03:15;;;;;;;1.37;1.37;;;17.20;99.90;;;;;;6227720;23;20426;-69
2022/10/05 10:06:09;;;;;;;1.57;1.47;;;17.30;99.90;;;;;;6249815;22;20439;-69
2022/10/05 10:08:50;;;;;;;1.80;1.70;;;17.30;99.90;;;;;;6257127;23;20414;-69
2022/10/05 10:11:31;;;;;;;2.50;2.23;;;17.20;99.90;;;;;;6253013;23;20409;-71
2022/10/05 10:14:19;;;;;;;2.43;2.20;;;17.10;99.90;;;;;;6251985;23;20407;-71
2022/10/05 10:17:02;;;;;;;3.20;3.00;;;17.00;99.90;;;;;;6248272;22;20453;-70
2022/10/05 10:20:03;;;;;;;2.83;2.63;;;17.00;99.90;;;;;;6241662;23;20407;-70
2022/10/05 10:23:07;;;;;;;2.33;2.23;;;17.10;99.90;;;;;;6242178;23;20410;-69
2022/10/05 10:26:00;;;;;;;1.83;1.73;;;17.20;99.90;;;;;;6242250;22;20437;-69
2022/10/05 10:28:51;;;;;;;3.30;3.00;;;17.20;99.90;;;;;;6242233;23;20505;-70
2022/10/05 10:31:35;;;;;;;2.47;2.37;;;17.20;99.90;;;;;;6244360;23;20514;-71
2022/10/05 10:34:36;;;;;;;2.00;1.90;;;17.20;99.90;;;;;;6243293;23;20406;-70
2022/10/05 10:37:39;;;;;;;2.20;2.10;;;17.20;99.90;;;;;;6205729;23;20441;-70
2022/10/05 10:40:24;;;;;;;4.90;2.70;;;17.20;99.90;;;;;;6237821;23;20499;-70
2022/10/05 10:43:11;;;;;;;2.27;2.07;;;17.10;99.90;;;;;;6243214;23;20408;-70
2022/10/05 10:45:49;;;;;;;1.40;1.40;;;17.00;99.90;;;;;;6242816;22;20454;-70
2022/10/05 10:48:49;;;;;;;2.50;2.43;;;17.00;99.90;;;;;;6244042;23;20405;-71
2022/10/05 10:51:25;;;;;;;1.83;1.80;;;17.00;99.90;;;;;;6244044;23;20426;-70
2022/10/05 10:54:20;;;;;;;1.97;1.87;;;17.00;99.90;;;;;;6253608;23;20449;-70
2022/10/05 10:56:53;;;;;;;2.80;2.70;;;17.00;99.90;;;;;;6244816;22;20464;-71
2022/10/05 11:00:00;;;;;;;2.20;2.10;;;17.10;99.90;;;;;;6243644;23;20408;-69
2022/10/05 11:03:12;;;;;;;1.70;1.17;;;17.10;99.90;;;;;;6244318;23;20419;-71
2022/10/05 11:06:10;;;;;;;1.70;1.70;;;17.10;99.90;;;;;;6183453;22;20446;-69
2022/10/05 11:09:08;;;;;;;2.43;2.33;;;17.20;99.90;;;;;;6225051;23;20444;-68
2022/10/05 11:12:12;;;;;;;2.73;2.53;;;17.20;99.90;;;;;;6214142;23;20422;-68
2022/10/05 11:15:01;;;;;;;1.90;1.90;;;17.20;99.90;;;;;;6213516;23;20429;-69
2022/10/05 11:17:46;;;;;;;3.50;2.30;;;17.30;99.90;;;;;;6214327;23;20446;-68
2022/10/05 11:20:33;;;;;;;1.50;1.50;;;17.30;99.90;;;;;;6212714;23;20418;-68
2022/10/05 11:23:19;;;;;;;1.80;1.70;;;17.30;99.90;;;;;;6213560;23;20469;-68
2022/10/05 11:26:00;;;;;;;1.70;1.70;;;17.30;99.90;;;;;;6213254;23;20403;-69
2022/10/05 11:28:39;;;;;;;1.37;1.37;;;17.40;99.90;;;;;;6212155;23;20415;-68
2022/10/05 11:31:44;;;;;;;2.37;2.17;;;17.40;99.90;;;;;;6211720;23;20408;-69
2022/10/05 11:34:40;;;;;;;1.90;1.90;;;17.40;99.90;;;;;;6212757;23;20419;-69
2022/10/05 11:37:51;;;;;;;2.07;2.00;;;17.40;99.90;;;;;;6213261;23;20462;-69
2022/10/05 11:40:38;;;;;;;1.90;1.80;;;17.40;99.90;;;;;;6169513;23;20793;-69
2022/10/05 11:43:46;;;;;;;1.80;1.80;;;17.40;99.90;;;;;;6212782;23;20445;-68
2022/10/05 11:46:21;;;;;;;1.90;1.77;;;17.40;99.90;;;;;;6213290;23;20439;-69
2022/10/05 11:49:15;;;;;;;3.20;1.80;;;17.30;99.90;;;;;;6212719;23;20467;-68
2022/10/05 11:51:57;;;;;;;2.10;2.00;;;17.30;99.90;;;;;;6213160;23;20412;-68
2022/10/05 11:54:59;;;;;;;2.70;2.17;;;17.40;99.90;;;;;;6212739;23;20884;-68
2022/10/05 11:57:33;;;;;;;2.63;2.53;;;17.40;99.90;;;;;;6212930;23;20449;-68
2022/10/05 12:00:11;;;;;;;2.43;2.40;;;17.50;99.90;;;;;;6213068;23;20408;-68
2022/10/05 12:03:17;;;;;;;2.17;2.13;;;17.50;99.90;;;;;;6211840;23;20418;-68
2022/10/05 12:06:02;;;;;;;2.40;2.30;;;17.50;99.90;;;;;;6212433;23;20400;-68
2022/10/05 12:08:39;;;;;;;2.20;2.20;;;17.50;99.90;;;;;;6211971;23;20830;-68
2022/10/05 12:11:25;;;;;;;2.20;2.10;;;17.40;99.90;;;;;;6211765;23;20481;-68
2022/10/05 12:13:56;;;;;;;2.63;2.63;;;17.50;99.90;;;;;;6212218;23;20404;-68
2022/10/05 12:16:29;;;;;;;2.43;2.37;;;17.50;99.90;;;;;;6212304;23;20453;-67
2022/10/05 12:19:01;;;;;;;1.80;1.80;;;17.50;99.90;;;;;;6211481;23;20499;-67
2022/10/05 12:21:33;;;;;;;2.17;2.17;;;17.50;99.90;;;;;;6211391;23;20414;-67
2022/10/05 12:24:04;;;;;;;2.20;2.20;;;17.60;99.90;;;;;;6211564;23;20412;-68
2022/10/05 12:26:39;;;;;;;2.53;2.43;;;17.80;99.90;;;;;;6213264;23;20515;-68
2022/10/05 12:29:13;;;;;;;2.33;2.30;;;17.90;99.90;;;;;;6212648;23;20963;-67
2022/10/05 12:31:52;;;;;;;2.83;2.73;;;17.80;99.90;;;;;;6212668;23;20714;-67
2022/10/05 12:34:27;;;;;;;1.97;1.97;;;17.80;99.90;;;;;;6211766;23;20416;-67
2022/10/05 12:36:58;;;;;;;1.80;1.80;;;17.80;99.90;;;;;;6212503;23;20461;-68
2022/10/05 12:39:36;;;;;;;1.70;1.70;;;17.80;99.90;;;;;;6212584;23;20860;-68
2022/10/05 12:42:15;;;;;;;2.63;2.53;;;17.70;99.90;;;;;;6213115;23;20663;-68
2022/10/05 12:44:58;;;;;;;1.70;1.70;;;17.70;99.90;;;;;;6211836;23;20709;-67
2022/10/05 12:47:32;;;;;;;1.93;1.93;;;17.70;99.90;;;;;;6212253;23;20443;-67
2022/10/05 12:50:11;;;;;;;1.73;1.73;;;17.60;99.90;;;;;;6209957;23;20407;-68
2022/10/05 12:52:50;;;;;;;6.03;1.87;;;17.70;99.90;;;;;;6208769;23;20411;-68
2022/10/05 12:55:24;;;;;;;2.10;2.10;;;17.80;99.90;;;;;;6210665;23;20440;-67
2022/10/05 12:58:04;;;;;;;1.90;1.90;;;17.80;99.90;;;;;;6212487;23;20440;-68
2022/10/05 13:00:33;;;;;;;2.30;2.30;;;17.80;99.90;;;;;;6212665;23;20415;-68
2022/10/05 13:03:04;;;;;;;1.57;1.57;;;17.80;99.90;;;;;;6211705;23;20428;-68
2022/10/05 13:05:38;;;;;;;1.93;1.93;;;17.80;99.90;;;;;;6211069;23;20409;-68
2022/10/05 13:08:17;;;;;;;2.33;2.30;;;17.80;99.90;;;;;;6212699;23;20402;-68
2022/10/05 13:10:48;;;;;;;1.90;1.90;;;17.90;99.90;;;;;;6212992;23;20404;-68
2022/10/05 13:13:32;;;;;;;1.30;1.30;;;18.00;99.90;;;;;;6212727;23;20419;-68
2022/10/05 13:16:07;;;;;;;2.17;2.07;;;18.00;99.90;;;;;;6212529;23;20473;-68
2022/10/05 13:18:44;;;;;;;1.60;1.60;;;17.90;99.90;;;;;;6212400;23;20854;-68
2022/10/05 13:21:16;;;;;;;2.70;2.50;;;17.90;99.90;;;;;;6212074;23;20411;-68
2022/10/05 13:23:54;;;;;;;3.00;2.80;;;17.90;99.90;;;;;;6212411;23;20871;-68
2022/10/05 13:26:25;;;;;;;2.20;2.20;;;17.90;99.90;;;;;;6212122;23;20446;-68
2022/10/05 13:28:59;;;;;;;2.57;2.57;;;17.90;99.90;;;;;;6212567;23;20804;-68
2022/10/05 13:31:29;;;;;;;1.63;1.63;;;17.90;99.90;;;;;;6213033;23;20798;-67
2022/10/05 13:34:11;;;;;;;2.50;2.50;;;18.00;99.90;;;;;;6212270;23;20763;-68
2022/10/05 13:36:47;;;;;;;2.43;2.33;;;18.00;99.90;;;;;;6212853;23;20450;-68
2022/10/05 13:39:27;;;;;;;2.33;1.60;;;18.00;99.90;;;;;;6212030;23;20406;-68
2022/10/05 13:41:59;;;;;;;2.10;2.00;;;18.00;99.90;;;;;;6212389;23;20408;-68
2022/10/05 13:44:34;;;;;;;2.10;2.07;;;18.10;99.90;;;;;;6211257;23;20431;-68
2022/10/05 13:47:06;;;;;;;1.53;1.53;;;18.10;99.90;;;;;;6212358;23;20497;-68
2022/10/05 13:49:44;;;;;;;1.80;1.80;;;18.10;99.90;;;;;;6211556;23;20789;-68
2022/10/05 13:52:22;;;;;;;1.47;1.37;;;18.10;99.90;;;;;;6211739;23;20417;-67
2022/10/05 13:54:58;;;;;;;0.93;0.93;;;18.00;99.90;;;;;;6210574;23;20854;-67
2022/10/05 13:57:43;;;;;;;1.50;1.50;;;18.00;99.90;;;;;;6212490;23;20471;-68
2022/10/05 14:00:17;;;;;;;1.27;1.27;;;18.00;99.90;;;;;;6211825;23;20445;-67
2022/10/05 14:02:46;;;;;;;1.70;1.10;;;18.10;99.90;;;;;;6212323;23;20474;-68
2022/10/05 14:05:19;;;;;;;1.87;1.83;;;18.10;99.90;;;;;;6209954;23;20883;-68
2022/10/05 14:07:55;;;;;;;1.40;1.40;;;18.10;99.90;;;;;;6211230;23;20450;-67
2022/10/05 14:10:34;;;;;;;1.20;1.20;;;18.10;99.90;;;;;;6211238;23;20412;-67
2022/10/05 14:13:09;;;;;;;1.13;1.13;;;18.10;99.90;;;;;;6211826;23;20442;-67
2022/10/05 14:15:37;;;;;;;1.30;1.30;;;18.10;99.90;;;;;;6209795;23;20440;-67
2022/10/05 14:18:23;;;;;;;0.97;0.97;;;18.10;99.90;;;;;;6211464;23;20423;-68
2022/10/05 14:21:00;;;;;;;1.17;1.17;;;18.10;99.90;;;;;;6211897;23;20408;-68
2022/10/05 14:23:27;;;;;;;0.80;0.80;;;18.10;99.90;;;;;;6211406;23;20406;-68
2022/10/05 14:25:54;;;;;;;1.10;1.10;;;18.10;99.90;;;;;;6211738;23;20439;-68
2022/10/05 14:28:29;;;;;;;1.27;1.27;;;18.20;99.90;;;;;;6210522;23;20903;-68
2022/10/05 14:30:58;;;;;;;1.20;1.20;;;18.20;99.90;;;;;;6211660;23;20459;-68
2022/10/05 14:33:27;;;;;;;1.57;1.57;;;18.20;99.90;;;;;;6211005;23;20435;-67
2022/10/05 14:35:56;;;;;;;1.03;1.03;;;18.20;99.90;;;;;;6210760;23;20450;-68
2022/10/05 14:38:28;;;;;;;2.03;1.83;;;18.20;99.90;;;;;;6211499;23;20428;-68
2022/10/05 14:41:18;;;;;;;1.13;1.13;;;18.20;99.90;;;;;;6210766;23;20879;-68
2022/10/05 14:43:54;;;;;;;1.60;1.60;;;18.10;99.90;;;;;;6210882;23;20411;-68
2022/10/05 14:46:25;;;;;;;0.70;0.70;;;18.20;99.90;;;;;;6211370;23;20505;-68
2022/10/05 14:49:12;;;;;;;1.70;1.60;;;18.10;99.90;;;;;;6210975;23;20406;-68
2022/10/05 14:51:41;;;;;;;1.20;1.20;;;18.10;99.90;;;;;;6211562;23;20418;-68
2022/10/05 14:54:29;;;;;;;1.93;1.83;;;18.10;99.90;;;;;;6213765;23;20782;-69
2022/10/05 14:57:12;;;;;;;1.47;1.47;;;18.00;99.90;;;;;;6211174;23;20454;-69
2022/10/05 14:59:55;;;;;;;1.13;1.13;;;18.00;99.90;;;;;;6207448;23;20412;-68
2022/10/05 15:03:05;;;;;;;4.10;1.13;;;18.00;99.90;;;;;;6210559;23;20407;-69
2022/10/05 15:05:36;;;;;;;1.90;1.47;;;18.00;99.90;;;;;;6207563;23;20406;-69
2022/10/05 15:08:14;;;;;;;1.10;1.10;;;18.10;99.90;;;;;;6207748;23;20419;-69
2022/10/05 15:10:48;;;;;;;0.90;0.90;;;18.10;99.90;;;;;;6206621;23;20468;-69
2022/10/05 15:13:17;;;;;;;1.80;1.70;;;18.10;99.90;;;;;;6207403;23;20402;-69
2022/10/05 15:15:50;;;;;;;1.30;1.23;;;18.10;99.90;;;;;;6217612;23;20451;-68
2022/10/05 15:18:29;;;;;;;1.43;1.43;;;18.00;99.90;;;;;;6212436;23;20407;-68
2022/10/05 15:21:11;;;;;;;1.73;1.73;;;18.00;99.90;;;;;;6210406;23;20419;-68
2022/10/05 15:23:41;;;;;;;1.40;1.40;;;18.00;99.90;;;;;;6209967;23;20412;-68
2022/10/05 15:26:29;;;;;;;0.97;0.97;;;18.00;99.90;;;;;;6210875;23;21275;-68
2022/10/05 15:28:59;;;;;;;1.23;1.23;;;18.00;99.90;;;;;;6211110;23;20413;-68
2022/10/05 15:31:39;;;;;;;1.83;1.83;;;18.00;99.90;;;;;;6213174;23;20425;-69
2022/10/05 15:34:14;;;;;;;1.00;1.00;;;18.00;99.90;;;;;;6208183;23;20486;-68
2022/10/05 15:36:46;;;;;;;1.53;1.47;;;17.90;99.90;;;;;;6211553;23;20454;-68
2022/10/05 15:39:20;;;;;;;1.60;1.33;;;17.80;99.90;;;;;;6207039;23;20407;-67
2022/10/05 15:41:59;;;;;;;1.50;1.50;;;17.80;99.90;;;;;;6212605;23;20415;-68
2022/10/05 15:44:40;;;;;;;0.87;0.87;;;17.80;99.90;;;;;;6212319;23;20411;-68
2022/10/05 15:47:16;;;;;;;1.97;1.87;;;17.80;99.90;;;;;;6213066;23;20450;-69
2022/10/05 15:49:52;;;;;;;1.37;1.37;;;17.80;99.90;;;;;;6211276;23;20783;-68
2022/10/05 15:52:25;;;;;;;1.47;1.47;;;17.70;99.90;;;;;;6206847;23;20422;-69
2022/10/05 15:55:16;;;;;;;1.70;1.70;;;17.70;99.90;;;;;;6208926;23;20874;-69
2022/10/05 15:57:49;;;;;;;1.27;1.27;;;17.60;99.90;;;;;;6210500;23;20449;-69
2022/10/05 16:00:18;;;;;;;1.37;1.30;;;17.50;99.90;;;;;;6212333;23;20732;-68
2022/10/05 16:02:52;;;;;;;0.93;0.93;;;17.50;99.90;;;;;;6212227;23;20497;-68
2022/10/05 16:08:53;;;;;;;1.00;1.00;;;17.40;99.90;;;;;;6212227;23;20395;-69
2022/10/05 16:11:50;;;;;;;0.73;0.73;;;17.30;99.90;;;;;;6212487;23;20407;-69
2022/10/05 16:14:29;;;;;;;0.83;0.83;;;17.30;99.90;;;;;;6206265;23;20430;-68
2022/10/05 16:17:08;;;;;;;1.37;1.30;;;17.30;99.90;;;;;;6207324;23;20456;-69
2022/10/05 16:19:43;;;;;;;1.50;1.50;;;17.20;99.90;;;;;;6211681;23;20870;-69
2022/10/05 16:22:20;;;;;;;1.30;1.30;;;17.10;99.90;;;;;;6212453;23;20467;-68
2022/10/05 16:25:00;;;;;;;1.13;1.13;;;17.00;99.90;;;;;;6211479;23;20879;-68
2022/10/05 16:27:37;;;;;;;1.03;1.03;;;17.00;99.90;;;;;;6211924;23;20497;-68
2022/10/05 16:30:09;;;;;;;2.97;1.63;;;16.90;99.90;;;;;;6212547;23;20413;-68
2022/10/05 16:32:39;;;;;;;1.13;1.13;;;16.80;99.90;;;;;;6210830;23;20857;-68
2022/10/05 16:35:16;;;;;;;2.13;2.03;;;16.80;99.90;;;;;;6212010;23;20425;-68
2022/10/05 16:37:55;;;;;;;1.47;1.47;;;16.70;99.90;;;;;;6210788;23;20533;-69
2022/10/05 16:40:29;;;;;;;1.60;1.60;;;16.60;99.90;;;;;;6211840;23;20524;-68
2022/10/05 16:43:04;;;;;;;1.40;1.17;;;16.60;99.90;;;;;;6211851;23;20426;-68
2022/10/05 16:45:44;;;;;;;1.40;1.40;;;16.50;99.90;;;;;;6210577;23;20777;-69
2022/10/05 16:48:17;;;;;;;1.73;1.63;;;16.40;99.90;;;;;;6221971;23;20507;-69
2022/10/05 16:50:53;;;;;;;1.17;1.17;;;16.40;99.90;;;;;;6211233;23;20800;-68
2022/10/05 16:53:28;;;;;;;1.20;1.17;;;16.30;99.90;;;;;;6212642;23;20406;-68
2022/10/05 16:56:00;;;;;;;1.57;1.47;;;16.30;99.90;;;;;;6212414;23;20437;-68
2022/10/05 16:58:36;;;;;;;0.90;0.83;;;16.20;99.90;;;;;;6211311;23;20432;-68
2022/10/05 17:01:18;;;;;;;1.30;1.30;;;16.20;99.90;;;;;;6210251;23;20413;-68
2022/10/05 17:03:57;;;;;;;1.20;1.20;;;16.10;99.90;;;;;;6210981;23;20415;-68
2022/10/05 17:06:43;;;;;;;1.10;1.10;;;16.00;99.90;;;;;;6211786;23;20446;-68
2022/10/05 17:09:29;;;;;;;2.20;2.10;;;16.00;99.90;;;;;;6210824;23;20409;-67
2022/10/05 17:12:11;;;;;;;1.70;1.70;;;15.90;99.90;;;;;;6211933;23;20415;-67
2022/10/05 17:14:48;;;;;;;1.90;1.80;;;15.80;99.90;;;;;;6218862;22;20475;-70
2022/10/05 17:17:33;;;;;;;1.83;1.70;;;15.80;99.90;;;;;;6242024;23;20495;-69
2022/10/05 17:20:15;;;;;;;1.53;1.53;;;15.80;99.90;;;;;;6241334;23;20415;-69
2022/10/05 17:22:51;;;;;;;3.50;1.80;;;15.80;99.90;;;;;;6251831;23;20408;-68
2022/10/05 17:25:26;;;;;;;2.00;1.87;;;15.80;99.90;;;;;;6240565;22;20483;-67
2022/10/05 17:27:55;;;;;;;2.00;1.87;;;15.80;99.90;;;;;;6240959;23;20738;-71
2022/10/05 17:30:52;;;;;;;5.70;2.07;;;15.70;99.90;;;;;;6237799;23;20423;-67
2022/10/05 17:33:24;;;;;;;1.27;1.27;;;15.70;99.90;;;;;;6230813;23;20454;-67
2022/10/05 17:36:11;;;;;;;2.13;2.10;;;15.60;99.90;;;;;;6240075;22;20451;-72
2022/10/05 17:38:51;;;;;;;3.83;1.83;;;15.60;99.90;;;;;;6240779;23;20416;-68
2022/10/05 17:41:24;;;;;;;1.43;1.43;;;15.60;99.90;;;;;;6241477;23;20740;-67
2022/10/05 17:44:24;;;;;;;1.60;1.60;;;15.50;99.90;;;;;;6242556;22;20430;-67
2022/10/05 17:46:56;;;;;;;1.87;1.80;;;15.40;99.90;;;;;;6242646;23;20426;-66
2022/10/05 17:55:38;;;;;;;4.80;1.93;;;15.20;99.90;;;;;;6242479;22;20502;-68
2022/10/05 17:58:42;;;;;;;1.70;1.63;;;15.20;99.90;;;;;;6241437;23;20488;-68
2022/10/05 18:01:19;;;;;;;3.13;3.03;;;15.10;99.90;;;;;;6238969;23;20424;-67
2022/10/05 18:03:49;;;;;;;1.43;1.10;;;15.10;99.90;;;;;;6239765;23;20413;-68
2022/10/05 18:06:33;;;;;;;1.60;1.60;;;15.00;99.90;;;;;;6241851;23;20408;-67
2022/10/05 18:09:32;;;;;;;1.87;1.83;;;15.00;99.90;;;;;;6238897;23;20751;-67